sensor_id;sensor_type;location;lat;lon;timestamp;P1;durP1;ratioP1;P2;durP2;ratioP2
2848;SDS011;59355;52.416;13.412;2023-12-07T00:00:48;35.47;;;25.07;;
2848;SDS011;59355;52.416;13.412;2023-12-07T00:03:14;35.60;;;22.90;;
2848;SDS011;59355;52.416;13.412;2023-12-07T00:05:40;33.13;;;22.87;;
2848;SDS011;59355;52.416;13.412;2023-12-07T00:08:05;33.43;;;22.30;;
2848;SDS011;59355;52.416;13.412;2023-12-07T00:10:34;34.27;;;22.83;;
2848;SDS011;59355;52.416;13.412;2023-12-07T00:12:59;34.20;;;22.87;;
2848;SDS011;59355;52.416;13.412;2023-12-07T00:15:25;32.70;;;23.33;;
2848;SDS011;59355;52.416;13.412;2023-12-07T00:17:50;32.70;;;23.40;;
2848;SDS011;59355;52.416;13.412;2023-12-07T00:20:15;34.70;;;23.67;;
2848;SDS011;59355;52.416;13.412;2023-12-07T00:22:41;32.40;;;23.47;;
2848;SDS011;59355;52.416;13.412;2023-12-07T00:25:06;37.40;;;25.07;;
2848;SDS011;59355;52.416;13.412;2023-12-07T00:27:32;38.40;;;23.53;;
2848;SDS011;59355;52.416;13.412;2023-12-07T00:29:57;33.40;;;23.33;;
2848;SDS011;59355;52.416;13.412;2023-12-07T00:32:22;35.40;;;23.93;;
2848;SDS011;59355;52.416;13.412;2023-12-07T00:34:48;35.63;;;25.50;;
2848;SDS011;59355;52.416;13.412;2023-12-07T00:37:14;37.13;;;22.63;;
2848;SDS011;59355;52.416;13.412;2023-12-07T00:39:40;35.07;;;24.07;;
2848;SDS011;59355;52.416;13.412;2023-12-07T00:42:06;34.73;;;22.30;;
2848;SDS011;59355;52.416;13.412;2023-12-07T00:44:31;38.70;;;22.93;;
2848;SDS011;59355;52.416;13.412;2023-12-07T00:46:56;35.70;;;24.50;;
2848;SDS011;59355;52.416;13.412;2023-12-07T00:49:22;33.87;;;23.40;;
2848;SDS011;59355;52.416;13.412;2023-12-07T00:51:47;36.03;;;23.40;;
2848;SDS011;59355;52.416;13.412;2023-12-07T00:54:12;36.07;;;23.70;;
2848;SDS011;59355;52.416;13.412;2023-12-07T00:56:38;36.03;;;24.43;;
2848;SDS011;59355;52.416;13.412;2023-12-07T00:59:03;38.20;;;22.80;;
2848;SDS011;59355;52.416;13.412;2023-12-07T01:01:29;38.13;;;24.87;;
2848;SDS011;59355;52.416;13.412;2023-12-07T01:03:54;36.33;;;25.23;;
2848;SDS011;59355;52.416;13.412;2023-12-07T01:06:19;37.30;;;23.20;;
2848;SDS011;59355;52.416;13.412;2023-12-07T01:08:45;36.93;;;24.20;;
2848;SDS011;59355;52.416;13.412;2023-12-07T01:11:10;32.30;;;22.83;;
2848;SDS011;59355;52.416;13.412;2023-12-07T01:13:35;31.60;;;24.53;;
2848;SDS011;59355;52.416;13.412;2023-12-07T01:16:01;35.97;;;24.90;;
2848;SDS011;59355;52.416;13.412;2023-12-07T01:18:26;41.93;;;24.83;;
2848;SDS011;59355;52.416;13.412;2023-12-07T01:20:51;34.93;;;24.07;;
2848;SDS011;59355;52.416;13.412;2023-12-07T01:23:17;32.63;;;23.50;;
2848;SDS011;59355;52.416;13.412;2023-12-07T01:25:42;34.80;;;22.53;;
2848;SDS011;59355;52.416;13.412;2023-12-07T01:28:07;38.10;;;23.90;;
2848;SDS011;59355;52.416;13.412;2023-12-07T01:30:33;33.93;;;24.80;;
2848;SDS011;59355;52.416;13.412;2023-12-07T01:32:58;42.83;;;25.90;;
2848;SDS011;59355;52.416;13.412;2023-12-07T01:35:24;37.93;;;25.17;;
2848;SDS011;59355;52.416;13.412;2023-12-07T01:37:49;37.17;;;24.67;;
2848;SDS011;59355;52.416;13.412;2023-12-07T01:40:15;37.63;;;25.70;;
2848;SDS011;59355;52.416;13.412;2023-12-07T01:42:49;39.70;;;25.80;;
2848;SDS011;59355;52.416;13.412;2023-12-07T01:45:15;31.90;;;24.10;;
2848;SDS011;59355;52.416;13.412;2023-12-07T01:47:40;35.23;;;24.83;;
2848;SDS011;59355;52.416;13.412;2023-12-07T01:50:06;37.60;;;23.80;;
2848;SDS011;59355;52.416;13.412;2023-12-07T01:52:33;35.67;;;24.37;;
2848;SDS011;59355;52.416;13.412;2023-12-07T01:55:00;36.00;;;25.50;;
2848;SDS011;59355;52.416;13.412;2023-12-07T01:57:26;36.70;;;24.60;;
2848;SDS011;59355;52.416;13.412;2023-12-07T01:59:52;37.33;;;24.00;;
2848;SDS011;59355;52.416;13.412;2023-12-07T02:02:17;31.80;;;22.73;;
2848;SDS011;59355;52.416;13.412;2023-12-07T02:04:42;37.13;;;24.63;;
2848;SDS011;59355;52.416;13.412;2023-12-07T02:07:08;37.60;;;25.00;;
2848;SDS011;59355;52.416;13.412;2023-12-07T02:09:33;37.50;;;25.00;;
2848;SDS011;59355;52.416;13.412;2023-12-07T02:11:59;37.53;;;25.27;;
2848;SDS011;59355;52.416;13.412;2023-12-07T02:14:25;35.87;;;24.33;;
2848;SDS011;59355;52.416;13.412;2023-12-07T02:19:47;36.87;;;24.00;;
2848;SDS011;59355;52.416;13.412;2023-12-07T02:22:25;36.03;;;23.87;;
2848;SDS011;59355;52.416;13.412;2023-12-07T02:25:11;35.97;;;25.10;;
2848;SDS011;59355;52.416;13.412;2023-12-07T02:27:42;32.67;;;23.63;;
2848;SDS011;59355;52.416;13.412;2023-12-07T02:30:09;39.03;;;23.90;;
2848;SDS011;59355;52.416;13.412;2023-12-07T02:32:36;33.50;;;24.03;;
2848;SDS011;59355;52.416;13.412;2023-12-07T02:35:02;31.67;;;22.60;;
2848;SDS011;59355;52.416;13.412;2023-12-07T02:37:28;38.30;;;26.10;;
2848;SDS011;59355;52.416;13.412;2023-12-07T02:39:57;37.37;;;25.50;;
2848;SDS011;59355;52.416;13.412;2023-12-07T02:42:24;36.33;;;24.40;;
2848;SDS011;59355;52.416;13.412;2023-12-07T02:44:51;41.03;;;27.47;;
2848;SDS011;59355;52.416;13.412;2023-12-07T02:47:17;38.50;;;24.50;;
2848;SDS011;59355;52.416;13.412;2023-12-07T02:49:43;36.63;;;25.67;;
2848;SDS011;59355;52.416;13.412;2023-12-07T02:52:08;41.83;;;25.17;;
2848;SDS011;59355;52.416;13.412;2023-12-07T02:54:34;39.53;;;25.07;;
2848;SDS011;59355;52.416;13.412;2023-12-07T02:56:59;39.13;;;24.97;;
2848;SDS011;59355;52.416;13.412;2023-12-07T02:59:24;35.20;;;23.20;;
2848;SDS011;59355;52.416;13.412;2023-12-07T03:01:50;32.70;;;22.50;;
2848;SDS011;59355;52.416;13.412;2023-12-07T03:04:15;36.93;;;25.60;;
2848;SDS011;59355;52.416;13.412;2023-12-07T03:06:40;33.10;;;25.13;;
2848;SDS011;59355;52.416;13.412;2023-12-07T03:09:06;33.57;;;23.80;;
2848;SDS011;59355;52.416;13.412;2023-12-07T03:11:31;37.30;;;25.30;;
2848;SDS011;59355;52.416;13.412;2023-12-07T03:13:56;38.57;;;26.23;;
2848;SDS011;59355;52.416;13.412;2023-12-07T03:16:22;39.80;;;25.20;;
2848;SDS011;59355;52.416;13.412;2023-12-07T03:18:47;34.47;;;24.60;;
2848;SDS011;59355;52.416;13.412;2023-12-07T03:21:12;36.60;;;24.30;;
2848;SDS011;59355;52.416;13.412;2023-12-07T03:23:37;36.10;;;24.80;;
2848;SDS011;59355;52.416;13.412;2023-12-07T03:26:03;37.53;;;25.40;;
2848;SDS011;59355;52.416;13.412;2023-12-07T03:28:28;40.90;;;25.70;;
2848;SDS011;59355;52.416;13.412;2023-12-07T03:30:53;37.97;;;25.47;;
2848;SDS011;59355;52.416;13.412;2023-12-07T03:33:19;35.57;;;24.20;;
2848;SDS011;59355;52.416;13.412;2023-12-07T03:35:44;36.73;;;26.67;;
2848;SDS011;59355;52.416;13.412;2023-12-07T03:38:09;34.90;;;24.27;;
2848;SDS011;59355;52.416;13.412;2023-12-07T03:40:35;38.67;;;28.13;;
2848;SDS011;59355;52.416;13.412;2023-12-07T03:43:00;44.57;;;27.97;;
2848;SDS011;59355;52.416;13.412;2023-12-07T03:45:28;40.93;;;26.70;;
2848;SDS011;59355;52.416;13.412;2023-12-07T03:47:53;39.10;;;26.03;;
2848;SDS011;59355;52.416;13.412;2023-12-07T03:50:18;41.07;;;26.20;;
2848;SDS011;59355;52.416;13.412;2023-12-07T03:52:44;37.00;;;25.50;;
2848;SDS011;59355;52.416;13.412;2023-12-07T03:55:09;42.67;;;26.70;;
2848;SDS011;59355;52.416;13.412;2023-12-07T03:57:35;41.90;;;26.97;;
2848;SDS011;59355;52.416;13.412;2023-12-07T04:00:01;43.40;;;26.03;;
2848;SDS011;59355;52.416;13.412;2023-12-07T04:02:26;45.87;;;28.20;;
2848;SDS011;59355;52.416;13.412;2023-12-07T04:04:51;40.63;;;26.10;;
2848;SDS011;59355;52.416;13.412;2023-12-07T04:07:17;38.70;;;26.60;;
2848;SDS011;59355;52.416;13.412;2023-12-07T04:09:42;39.63;;;26.53;;
2848;SDS011;59355;52.416;13.412;2023-12-07T04:12:08;39.13;;;27.30;;
2848;SDS011;59355;52.416;13.412;2023-12-07T04:14:33;38.77;;;25.63;;
2848;SDS011;59355;52.416;13.412;2023-12-07T04:16:58;40.37;;;25.67;;
2848;SDS011;59355;52.416;13.412;2023-12-07T04:19:24;35.43;;;25.40;;
2848;SDS011;59355;52.416;13.412;2023-12-07T04:21:49;41.50;;;27.67;;
2848;SDS011;59355;52.416;13.412;2023-12-07T04:24:14;43.60;;;27.10;;
2848;SDS011;59355;52.416;13.412;2023-12-07T04:26:40;53.47;;;28.50;;
2848;SDS011;59355;52.416;13.412;2023-12-07T04:29:05;42.93;;;26.30;;
2848;SDS011;59355;52.416;13.412;2023-12-07T04:31:30;40.20;;;25.50;;
2848;SDS011;59355;52.416;13.412;2023-12-07T04:33:56;34.27;;;24.30;;
2848;SDS011;59355;52.416;13.412;2023-12-07T04:36:21;43.07;;;29.90;;
2848;SDS011;59355;52.416;13.412;2023-12-07T04:38:46;40.00;;;26.37;;
2848;SDS011;59355;52.416;13.412;2023-12-07T04:41:12;36.93;;;26.00;;
2848;SDS011;59355;52.416;13.412;2023-12-07T04:43:37;40.20;;;26.60;;
2848;SDS011;59355;52.416;13.412;2023-12-07T04:46:02;39.90;;;26.37;;
2848;SDS011;59355;52.416;13.412;2023-12-07T04:48:28;43.97;;;26.93;;
2848;SDS011;59355;52.416;13.412;2023-12-07T04:50:54;43.90;;;25.80;;
2848;SDS011;59355;52.416;13.412;2023-12-07T04:53:19;44.10;;;28.27;;
2848;SDS011;59355;52.416;13.412;2023-12-07T04:55:44;41.20;;;27.37;;
2848;SDS011;59355;52.416;13.412;2023-12-07T04:58:13;37.63;;;26.43;;
2848;SDS011;59355;52.416;13.412;2023-12-07T05:00:38;41.30;;;27.07;;
2848;SDS011;59355;52.416;13.412;2023-12-07T05:03:04;39.93;;;26.23;;
2848;SDS011;59355;52.416;13.412;2023-12-07T05:05:29;43.33;;;25.90;;
2848;SDS011;59355;52.416;13.412;2023-12-07T05:07:54;43.83;;;26.13;;
2848;SDS011;59355;52.416;13.412;2023-12-07T05:10:20;40.47;;;24.97;;
2848;SDS011;59355;52.416;13.412;2023-12-07T05:12:45;37.60;;;25.80;;
2848;SDS011;59355;52.416;13.412;2023-12-07T05:15:11;40.40;;;26.63;;
2848;SDS011;59355;52.416;13.412;2023-12-07T05:17:36;39.07;;;27.30;;
2848;SDS011;59355;52.416;13.412;2023-12-07T05:20:01;41.47;;;26.80;;
2848;SDS011;59355;52.416;13.412;2023-12-07T05:22:27;40.73;;;27.73;;
2848;SDS011;59355;52.416;13.412;2023-12-07T05:24:54;37.33;;;25.97;;
2848;SDS011;59355;52.416;13.412;2023-12-07T05:27:19;40.17;;;26.97;;
2848;SDS011;59355;52.416;13.412;2023-12-07T05:29:44;37.90;;;26.10;;
2848;SDS011;59355;52.416;13.412;2023-12-07T05:32:10;45.93;;;25.87;;
2848;SDS011;59355;52.416;13.412;2023-12-07T05:34:35;41.57;;;25.70;;
2848;SDS011;59355;52.416;13.412;2023-12-07T05:37:00;41.87;;;25.67;;
2848;SDS011;59355;52.416;13.412;2023-12-07T05:39:26;44.57;;;25.70;;
2848;SDS011;59355;52.416;13.412;2023-12-07T05:41:51;40.47;;;26.93;;
2848;SDS011;59355;52.416;13.412;2023-12-07T05:44:16;41.63;;;26.23;;
2848;SDS011;59355;52.416;13.412;2023-12-07T05:46:47;43.53;;;26.40;;
2848;SDS011;59355;52.416;13.412;2023-12-07T05:49:13;36.10;;;26.00;;
2848;SDS011;59355;52.416;13.412;2023-12-07T05:51:38;41.20;;;25.80;;
2848;SDS011;59355;52.416;13.412;2023-12-07T05:54:04;43.37;;;28.30;;
2848;SDS011;59355;52.416;13.412;2023-12-07T05:56:30;42.30;;;27.80;;
2848;SDS011;59355;52.416;13.412;2023-12-07T05:58:56;38.27;;;26.27;;
2848;SDS011;59355;52.416;13.412;2023-12-07T06:01:21;43.53;;;26.17;;
2848;SDS011;59355;52.416;13.412;2023-12-07T06:03:47;48.33;;;27.90;;
2848;SDS011;59355;52.416;13.412;2023-12-07T06:06:12;39.47;;;27.23;;
2848;SDS011;59355;52.416;13.412;2023-12-07T06:08:37;48.87;;;27.80;;
2848;SDS011;59355;52.416;13.412;2023-12-07T06:11:03;48.40;;;29.47;;
2848;SDS011;59355;52.416;13.412;2023-12-07T06:13:28;49.63;;;28.93;;
2848;SDS011;59355;52.416;13.412;2023-12-07T06:15:53;44.57;;;27.60;;
2848;SDS011;59355;52.416;13.412;2023-12-07T06:18:19;48.73;;;28.07;;
2848;SDS011;59355;52.416;13.412;2023-12-07T06:20:44;51.17;;;26.30;;
2848;SDS011;59355;52.416;13.412;2023-12-07T06:23:10;48.67;;;28.23;;
2848;SDS011;59355;52.416;13.412;2023-12-07T06:25:37;49.50;;;28.10;;
2848;SDS011;59355;52.416;13.412;2023-12-07T06:28:03;44.07;;;27.57;;
2848;SDS011;59355;52.416;13.412;2023-12-07T06:30:29;55.60;;;30.43;;
2848;SDS011;59355;52.416;13.412;2023-12-07T06:32:54;41.97;;;27.00;;
2848;SDS011;59355;52.416;13.412;2023-12-07T06:35:19;48.07;;;29.30;;
2848;SDS011;59355;52.416;13.412;2023-12-07T06:37:45;51.53;;;29.63;;
2848;SDS011;59355;52.416;13.412;2023-12-07T06:40:10;54.70;;;31.27;;
2848;SDS011;59355;52.416;13.412;2023-12-07T06:42:35;48.10;;;30.10;;
2848;SDS011;59355;52.416;13.412;2023-12-07T06:45:01;50.30;;;28.07;;
2848;SDS011;59355;52.416;13.412;2023-12-07T06:47:27;54.17;;;29.43;;
2848;SDS011;59355;52.416;13.412;2023-12-07T06:49:52;51.20;;;30.80;;
2848;SDS011;59355;52.416;13.412;2023-12-07T06:52:17;48.57;;;30.50;;
2848;SDS011;59355;52.416;13.412;2023-12-07T06:54:43;45.70;;;26.80;;
2848;SDS011;59355;52.416;13.412;2023-12-07T06:57:08;47.83;;;29.13;;
2848;SDS011;59355;52.416;13.412;2023-12-07T06:59:33;54.00;;;29.77;;
2848;SDS011;59355;52.416;13.412;2023-12-07T07:01:59;49.97;;;30.80;;
2848;SDS011;59355;52.416;13.412;2023-12-07T07:04:24;46.07;;;28.30;;
2848;SDS011;59355;52.416;13.412;2023-12-07T07:06:49;44.77;;;27.67;;
2848;SDS011;59355;52.416;13.412;2023-12-07T07:09:16;49.07;;;29.67;;
2848;SDS011;59355;52.416;13.412;2023-12-07T07:11:41;52.13;;;27.50;;
2848;SDS011;59355;52.416;13.412;2023-12-07T07:14:07;49.97;;;29.10;;
2848;SDS011;59355;52.416;13.412;2023-12-07T07:16:32;44.63;;;27.70;;
2848;SDS011;59355;52.416;13.412;2023-12-07T07:18:58;42.37;;;28.37;;
2848;SDS011;59355;52.416;13.412;2023-12-07T07:21:23;48.40;;;28.13;;
2848;SDS011;59355;52.416;13.412;2023-12-07T07:23:48;45.37;;;27.50;;
2848;SDS011;59355;52.416;13.412;2023-12-07T07:26:14;45.30;;;27.03;;
2848;SDS011;59355;52.416;13.412;2023-12-07T07:28:42;41.90;;;27.10;;
2848;SDS011;59355;52.416;13.412;2023-12-07T07:31:07;45.77;;;30.67;;
2848;SDS011;59355;52.416;13.412;2023-12-07T07:33:33;52.60;;;28.87;;
2848;SDS011;59355;52.416;13.412;2023-12-07T07:35:58;48.60;;;27.13;;
2848;SDS011;59355;52.416;13.412;2023-12-07T07:38:23;47.90;;;29.67;;
2848;SDS011;59355;52.416;13.412;2023-12-07T07:40:49;49.37;;;27.20;;
2848;SDS011;59355;52.416;13.412;2023-12-07T07:43:14;45.00;;;26.90;;
2848;SDS011;59355;52.416;13.412;2023-12-07T07:45:40;42.17;;;27.60;;
2848;SDS011;59355;52.416;13.412;2023-12-07T07:48:05;41.67;;;27.77;;
2848;SDS011;59355;52.416;13.412;2023-12-07T07:50:30;47.87;;;28.53;;
2848;SDS011;59355;52.416;13.412;2023-12-07T07:52:55;43.77;;;29.03;;
2848;SDS011;59355;52.416;13.412;2023-12-07T07:55:21;49.07;;;27.83;;
2848;SDS011;59355;52.416;13.412;2023-12-07T07:57:46;44.47;;;27.20;;
2848;SDS011;59355;52.416;13.412;2023-12-07T08:00:12;52.83;;;29.77;;
2848;SDS011;59355;52.416;13.412;2023-12-07T08:02:38;47.70;;;28.80;;
2848;SDS011;59355;52.416;13.412;2023-12-07T08:05:03;44.93;;;28.60;;
2848;SDS011;59355;52.416;13.412;2023-12-07T08:07:29;46.13;;;31.10;;
2848;SDS011;59355;52.416;13.412;2023-12-07T08:09:54;42.57;;;26.77;;
2848;SDS011;59355;52.416;13.412;2023-12-07T08:12:19;49.53;;;28.27;;
2848;SDS011;59355;52.416;13.412;2023-12-07T08:14:47;52.00;;;29.30;;
2848;SDS011;59355;52.416;13.412;2023-12-07T08:17:13;47.83;;;29.20;;
2848;SDS011;59355;52.416;13.412;2023-12-07T08:19:41;49.17;;;30.07;;
2848;SDS011;59355;52.416;13.412;2023-12-07T08:22:06;50.50;;;30.33;;
2848;SDS011;59355;52.416;13.412;2023-12-07T08:24:32;49.70;;;29.93;;
2848;SDS011;59355;52.416;13.412;2023-12-07T08:26:57;54.13;;;31.57;;
2848;SDS011;59355;52.416;13.412;2023-12-07T08:29:22;43.43;;;29.27;;
2848;SDS011;59355;52.416;13.412;2023-12-07T08:31:48;44.87;;;28.20;;
2848;SDS011;59355;52.416;13.412;2023-12-07T08:34:13;45.10;;;28.00;;
2848;SDS011;59355;52.416;13.412;2023-12-07T08:36:39;48.20;;;29.63;;
2848;SDS011;59355;52.416;13.412;2023-12-07T08:39:04;50.23;;;30.37;;
2848;SDS011;59355;52.416;13.412;2023-12-07T08:41:34;53.37;;;31.10;;
2848;SDS011;59355;52.416;13.412;2023-12-07T08:43:59;46.27;;;28.90;;
2848;SDS011;59355;52.416;13.412;2023-12-07T08:46:25;46.70;;;30.70;;
2848;SDS011;59355;52.416;13.412;2023-12-07T08:48:50;45.30;;;27.90;;
2848;SDS011;59355;52.416;13.412;2023-12-07T08:51:15;46.07;;;30.07;;
2848;SDS011;59355;52.416;13.412;2023-12-07T08:53:41;43.27;;;29.03;;
2848;SDS011;59355;52.416;13.412;2023-12-07T08:56:06;42.70;;;28.07;;
2848;SDS011;59355;52.416;13.412;2023-12-07T08:58:32;50.60;;;30.87;;
2848;SDS011;59355;52.416;13.412;2023-12-07T09:00:57;47.70;;;31.07;;
2848;SDS011;59355;52.416;13.412;2023-12-07T09:03:22;47.90;;;29.10;;
2848;SDS011;59355;52.416;13.412;2023-12-07T09:05:52;48.20;;;28.93;;
2848;SDS011;59355;52.416;13.412;2023-12-07T09:08:18;43.80;;;28.57;;
2848;SDS011;59355;52.416;13.412;2023-12-07T09:10:43;46.33;;;28.10;;
2848;SDS011;59355;52.416;13.412;2023-12-07T09:13:08;48.53;;;28.37;;
2848;SDS011;59355;52.416;13.412;2023-12-07T09:15:34;53.37;;;30.00;;
2848;SDS011;59355;52.416;13.412;2023-12-07T09:18:02;47.47;;;28.13;;
2848;SDS011;59355;52.416;13.412;2023-12-07T09:20:28;50.53;;;30.47;;
2848;SDS011;59355;52.416;13.412;2023-12-07T09:22:53;46.57;;;26.97;;
2848;SDS011;59355;52.416;13.412;2023-12-07T09:25:20;53.47;;;29.97;;
2848;SDS011;59355;52.416;13.412;2023-12-07T09:27:46;51.07;;;29.37;;
2848;SDS011;59355;52.416;13.412;2023-12-07T09:30:12;48.77;;;29.93;;
2848;SDS011;59355;52.416;13.412;2023-12-07T09:32:41;51.53;;;28.90;;
2848;SDS011;59355;52.416;13.412;2023-12-07T09:35:07;47.47;;;27.60;;
2848;SDS011;59355;52.416;13.412;2023-12-07T09:37:35;45.30;;;28.27;;
2848;SDS011;59355;52.416;13.412;2023-12-07T09:40:00;49.97;;;29.40;;
2848;SDS011;59355;52.416;13.412;2023-12-07T09:42:26;50.40;;;29.70;;
2848;SDS011;59355;52.416;13.412;2023-12-07T09:44:52;54.00;;;30.00;;
2848;SDS011;59355;52.416;13.412;2023-12-07T09:47:17;57.43;;;30.20;;
2848;SDS011;59355;52.416;13.412;2023-12-07T09:49:43;53.43;;;30.30;;
2848;SDS011;59355;52.416;13.412;2023-12-07T09:52:09;55.50;;;31.63;;
2848;SDS011;59355;52.416;13.412;2023-12-07T09:54:35;59.57;;;30.50;;
2848;SDS011;59355;52.416;13.412;2023-12-07T09:57:01;47.50;;;28.90;;
2848;SDS011;59355;52.416;13.412;2023-12-07T09:59:26;44.80;;;29.07;;
2848;SDS011;59355;52.416;13.412;2023-12-07T10:01:51;48.60;;;29.77;;
2848;SDS011;59355;52.416;13.412;2023-12-07T10:04:18;49.30;;;30.00;;
2848;SDS011;59355;52.416;13.412;2023-12-07T10:06:45;55.07;;;29.87;;
2848;SDS011;59355;52.416;13.412;2023-12-07T10:09:11;55.77;;;32.30;;
2848;SDS011;59355;52.416;13.412;2023-12-07T10:11:36;58.33;;;28.50;;
2848;SDS011;59355;52.416;13.412;2023-12-07T10:14:02;56.67;;;30.43;;
2848;SDS011;59355;52.416;13.412;2023-12-07T10:16:28;58.33;;;30.47;;
2848;SDS011;59355;52.416;13.412;2023-12-07T10:18:53;60.53;;;29.90;;
2848;SDS011;59355;52.416;13.412;2023-12-07T10:21:31;62.80;;;32.30;;
2848;SDS011;59355;52.416;13.412;2023-12-07T10:23:57;57.20;;;30.27;;
2848;SDS011;59355;52.416;13.412;2023-12-07T10:26:22;48.10;;;28.10;;
2848;SDS011;59355;52.416;13.412;2023-12-07T10:28:50;49.97;;;30.90;;
2848;SDS011;59355;52.416;13.412;2023-12-07T10:31:19;54.93;;;30.60;;
2848;SDS011;59355;52.416;13.412;2023-12-07T10:33:48;54.90;;;31.60;;
2848;SDS011;59355;52.416;13.412;2023-12-07T10:36:14;54.17;;;30.27;;
2848;SDS011;59355;52.416;13.412;2023-12-07T10:38:39;43.43;;;29.27;;
2848;SDS011;59355;52.416;13.412;2023-12-07T10:41:06;51.93;;;31.40;;
2848;SDS011;59355;52.416;13.412;2023-12-07T10:43:36;48.60;;;29.30;;
2848;SDS011;59355;52.416;13.412;2023-12-07T10:46:02;52.73;;;30.57;;
2848;SDS011;59355;52.416;13.412;2023-12-07T10:48:30;52.83;;;30.20;;
2848;SDS011;59355;52.416;13.412;2023-12-07T10:50:57;49.57;;;29.63;;
2848;SDS011;59355;52.416;13.412;2023-12-07T10:53:27;44.93;;;27.27;;
2848;SDS011;59355;52.416;13.412;2023-12-07T10:55:59;47.03;;;27.73;;
2848;SDS011;59355;52.416;13.412;2023-12-07T10:58:25;44.97;;;28.17;;
2848;SDS011;59355;52.416;13.412;2023-12-07T11:00:54;44.77;;;27.40;;
2848;SDS011;59355;52.416;13.412;2023-12-07T11:03:20;40.87;;;26.50;;
2848;SDS011;59355;52.416;13.412;2023-12-07T11:05:47;40.90;;;27.90;;
2848;SDS011;59355;52.416;13.412;2023-12-07T11:14:04;39.57;;;26.93;;
2848;SDS011;59355;52.416;13.412;2023-12-07T11:16:37;41.73;;;26.53;;
2848;SDS011;59355;52.416;13.412;2023-12-07T11:22:09;38.40;;;26.83;;
2848;SDS011;59355;52.416;13.412;2023-12-07T11:24:35;39.83;;;26.07;;
2848;SDS011;59355;52.416;13.412;2023-12-07T11:27:01;37.57;;;25.10;;
2848;SDS011;59355;52.416;13.412;2023-12-07T11:29:28;42.60;;;29.10;;
2848;SDS011;59355;52.416;13.412;2023-12-07T11:32:03;43.17;;;27.07;;
2848;SDS011;59355;52.416;13.412;2023-12-07T11:34:39;48.00;;;28.27;;
2848;SDS011;59355;52.416;13.412;2023-12-07T11:37:08;44.33;;;29.27;;
2848;SDS011;59355;52.416;13.412;2023-12-07T11:39:37;46.57;;;27.87;;
2848;SDS011;59355;52.416;13.412;2023-12-07T11:42:11;47.83;;;28.63;;
2848;SDS011;59355;52.416;13.412;2023-12-07T11:44:38;46.97;;;28.50;;
2848;SDS011;59355;52.416;13.412;2023-12-07T11:47:05;45.57;;;29.30;;
2848;SDS011;59355;52.416;13.412;2023-12-07T11:49:31;44.20;;;27.70;;
2848;SDS011;59355;52.416;13.412;2023-12-07T11:51:57;44.63;;;28.00;;
2848;SDS011;59355;52.416;13.412;2023-12-07T11:54:22;45.77;;;27.17;;
2848;SDS011;59355;52.416;13.412;2023-12-07T11:56:52;46.13;;;27.10;;
2848;SDS011;59355;52.416;13.412;2023-12-07T11:59:18;42.57;;;29.87;;
2848;SDS011;59355;52.416;13.412;2023-12-07T12:01:47;42.50;;;27.23;;
2848;SDS011;59355;52.416;13.412;2023-12-07T12:04:13;45.67;;;28.03;;
2848;SDS011;59355;52.416;13.412;2023-12-07T12:06:39;46.87;;;29.57;;
2848;SDS011;59355;52.416;13.412;2023-12-07T12:09:04;42.17;;;29.00;;
2848;SDS011;59355;52.416;13.412;2023-12-07T12:11:30;45.80;;;31.17;;
2848;SDS011;59355;52.416;13.412;2023-12-07T12:13:55;47.67;;;30.50;;
2848;SDS011;59355;52.416;13.412;2023-12-07T12:16:20;40.00;;;28.13;;
2848;SDS011;59355;52.416;13.412;2023-12-07T12:18:46;48.17;;;31.17;;
2848;SDS011;59355;52.416;13.412;2023-12-07T12:21:11;50.40;;;30.67;;
2848;SDS011;59355;52.416;13.412;2023-12-07T12:23:36;47.40;;;31.20;;
2848;SDS011;59355;52.416;13.412;2023-12-07T12:26:02;43.83;;;30.83;;
2848;SDS011;59355;52.416;13.412;2023-12-07T12:28:28;46.30;;;30.53;;
2848;SDS011;59355;52.416;13.412;2023-12-07T12:30:54;49.57;;;31.73;;
2848;SDS011;59355;52.416;13.412;2023-12-07T12:33:20;55.83;;;33.23;;
2848;SDS011;59355;52.416;13.412;2023-12-07T12:35:45;46.93;;;30.63;;
2848;SDS011;59355;52.416;13.412;2023-12-07T12:38:10;51.33;;;32.73;;
2848;SDS011;59355;52.416;13.412;2023-12-07T12:40:36;52.93;;;33.63;;
2848;SDS011;59355;52.416;13.412;2023-12-07T12:43:02;45.00;;;30.33;;
2848;SDS011;59355;52.416;13.412;2023-12-07T12:45:27;50.63;;;32.67;;
2848;SDS011;59355;52.416;13.412;2023-12-07T12:47:52;48.43;;;32.60;;
2848;SDS011;59355;52.416;13.412;2023-12-07T12:50:37;49.87;;;31.97;;
2848;SDS011;59355;52.416;13.412;2023-12-07T12:53:07;51.60;;;33.10;;
2848;SDS011;59355;52.416;13.412;2023-12-07T12:55:35;55.43;;;33.43;;
2848;SDS011;59355;52.416;13.412;2023-12-07T12:58:06;56.03;;;33.70;;
2848;SDS011;59355;52.416;13.412;2023-12-07T13:00:32;52.80;;;35.87;;
2848;SDS011;59355;52.416;13.412;2023-12-07T13:03:00;51.77;;;33.97;;
2848;SDS011;59355;52.416;13.412;2023-12-07T13:05:29;57.87;;;36.17;;
2848;SDS011;59355;52.416;13.412;2023-12-07T13:07:54;59.30;;;35.80;;
2848;SDS011;59355;52.416;13.412;2023-12-07T13:10:19;56.30;;;36.47;;
2848;SDS011;59355;52.416;13.412;2023-12-07T13:12:45;57.17;;;35.70;;
2848;SDS011;59355;52.416;13.412;2023-12-07T13:15:11;60.87;;;37.43;;
2848;SDS011;59355;52.416;13.412;2023-12-07T13:17:37;58.37;;;35.63;;
2848;SDS011;59355;52.416;13.412;2023-12-07T13:20:03;64.00;;;35.90;;
2848;SDS011;59355;52.416;13.412;2023-12-07T13:22:41;62.63;;;36.43;;
2848;SDS011;59355;52.416;13.412;2023-12-07T13:25:12;66.23;;;36.10;;
2848;SDS011;59355;52.416;13.412;2023-12-07T13:27:40;58.77;;;37.47;;
2848;SDS011;59355;52.416;13.412;2023-12-07T13:30:06;67.00;;;37.30;;
2848;SDS011;59355;52.416;13.412;2023-12-07T13:32:32;70.47;;;37.60;;
2848;SDS011;59355;52.416;13.412;2023-12-07T13:34:58;71.63;;;38.77;;
2848;SDS011;59355;52.416;13.412;2023-12-07T13:37:23;70.63;;;38.87;;
2848;SDS011;59355;52.416;13.412;2023-12-07T13:39:49;64.07;;;36.23;;
2848;SDS011;59355;52.416;13.412;2023-12-07T13:42:20;66.80;;;38.43;;
2848;SDS011;59355;52.416;13.412;2023-12-07T13:44:46;60.40;;;37.03;;
2848;SDS011;59355;52.416;13.412;2023-12-07T13:47:11;73.03;;;37.67;;
2848;SDS011;59355;52.416;13.412;2023-12-07T13:49:36;74.17;;;39.73;;
2848;SDS011;59355;52.416;13.412;2023-12-07T13:52:02;63.80;;;37.40;;
2848;SDS011;59355;52.416;13.412;2023-12-07T13:54:27;80.97;;;39.43;;
2848;SDS011;59355;52.416;13.412;2023-12-07T13:56:52;75.33;;;39.93;;
2848;SDS011;59355;52.416;13.412;2023-12-07T13:59:18;87.80;;;39.83;;
2848;SDS011;59355;52.416;13.412;2023-12-07T14:01:43;77.10;;;39.57;;
2848;SDS011;59355;52.416;13.412;2023-12-07T14:04:09;77.67;;;39.30;;
2848;SDS011;59355;52.416;13.412;2023-12-07T14:06:34;82.83;;;40.50;;
2848;SDS011;59355;52.416;13.412;2023-12-07T14:09:00;84.20;;;40.03;;
2848;SDS011;59355;52.416;13.412;2023-12-07T14:11:25;81.93;;;40.97;;
2848;SDS011;59355;52.416;13.412;2023-12-07T14:13:51;94.77;;;42.90;;
2848;SDS011;59355;52.416;13.412;2023-12-07T14:16:19;91.13;;;39.87;;
2848;SDS011;59355;52.416;13.412;2023-12-07T14:18:44;81.93;;;38.23;;
2848;SDS011;59355;52.416;13.412;2023-12-07T14:21:09;92.57;;;40.90;;
2848;SDS011;59355;52.416;13.412;2023-12-07T14:23:35;94.30;;;40.83;;
2848;SDS011;59355;52.416;13.412;2023-12-07T14:26:00;89.30;;;41.20;;